Weather at Tenneco Station Five Airport

Public forecast

Using degrees Celsius for public forecast. Weather courtesy of forecast.io.

Closest aviation weather report (METAR) to Tenneco Station Five Airport

Closest report is Leigh Creek Airport, 91.9 nm (170.1 km) NNW. Retrieved 2021/06/15 04:00 UTC (2 minutes ago):

YLEC 150400Z AUTO 33012KT 9999 // SCT030 SCT037 SCT044 18/09 Q1010

Closest aviation forecast (TAF) to Tenneco Station Five Airport

Forecast is more than 12 hours old.

Closest forecast is Whyalla Airport, 107.6 nm (199.3 km) SW. Retrieved 2018/11/15 18:03 UTC (3 years ago):

TAF YWHA 151701Z 1518/1608 VRB05KT CAVOK FM152300 18012KT CAVOK FM160200 18018KT CAVOK